createdAt,value
2022-12-20T00:04:50.334Z,5.78
2022-12-20T00:09:51.779Z,4.70
2022-12-20T00:14:53.239Z,5.65
2022-12-20T00:19:54.703Z,4.82
2022-12-20T00:24:56.146Z,5.53
2022-12-20T00:29:57.627Z,5.80
2022-12-20T00:34:59.213Z,5.70
2022-12-20T00:40:00.686Z,5.95
2022-12-20T00:45:02.347Z,8.05
2022-12-20T00:50:03.941Z,9.07
2022-12-20T00:55:05.493Z,6.85
2022-12-20T01:00:07.191Z,7.80
2022-12-20T01:05:08.903Z,7.22
2022-12-20T01:10:10.714Z,8.80
2022-12-20T01:15:12.395Z,8.25
2022-12-20T01:20:14.092Z,7.50
2022-12-20T01:25:15.653Z,7.00
2022-12-20T01:30:17.124Z,7.47
2022-12-20T01:35:18.658Z,6.72
2022-12-20T01:40:20.116Z,7.30
2022-12-20T01:45:25.511Z,6.55
2022-12-20T01:50:28.616Z,6.80
2022-12-20T01:55:30.374Z,7.10
2022-12-20T02:00:31.910Z,6.63
2022-12-20T02:05:35.402Z,7.38
2022-12-20T02:10:55.611Z,6.65
2022-12-20T02:15:58.506Z,6.90
2022-12-20T02:21:05.824Z,6.72
2022-12-20T02:26:13.003Z,7.13
2022-12-20T02:31:17.650Z,7.13
2022-12-20T02:36:19.180Z,7.20
2022-12-20T02:41:28.334Z,7.00
2022-12-20T02:46:31.025Z,5.93
2022-12-20T02:51:33.470Z,7.00
2022-12-20T02:57:00.500Z,5.93
2022-12-20T03:02:02.594Z,6.72
2022-12-20T03:07:05.896Z,6.95
2022-12-20T03:12:08.104Z,6.05
2022-12-20T03:17:09.672Z,7.07
2022-12-20T03:22:11.634Z,7.13
2022-12-20T03:27:13.130Z,5.60
2022-12-20T03:32:14.553Z,6.63
2022-12-20T03:37:16.457Z,6.15
2022-12-20T03:42:18.149Z,6.22
2022-12-20T03:47:19.655Z,7.72
2022-12-20T03:52:21.307Z,6.63
2022-12-20T03:57:22.833Z,6.00
2022-12-20T04:02:24.629Z,6.72
2022-12-20T04:07:26.395Z,6.25
2022-12-20T04:12:27.839Z,6.55
2022-12-20T04:17:29.341Z,5.75
2022-12-20T04:22:30.815Z,6.97
2022-12-20T04:27:32.333Z,6.72
2022-12-20T04:32:33.868Z,6.80
2022-12-20T04:37:35.326Z,6.45
2022-12-20T04:42:36.773Z,6.95
2022-12-20T04:47:38.211Z,6.03
2022-12-20T04:52:58.074Z,5.30
2022-12-20T04:58:05.277Z,6.63
2022-12-20T05:03:08.954Z,5.37
2022-12-20T05:08:10.465Z,4.70
2022-12-20T05:13:11.963Z,4.78
2022-12-20T05:18:13.426Z,4.97
2022-12-20T05:23:44.181Z,5.22
2022-12-20T05:28:45.606Z,3.88
2022-12-20T05:33:47.305Z,4.32
2022-12-20T05:38:48.877Z,3.95
2022-12-20T05:43:50.313Z,3.55
2022-12-20T05:48:52.508Z,3.28
2022-12-20T05:53:54.208Z,3.10
2022-12-20T05:58:55.749Z,3.45
2022-12-20T06:03:57.325Z,3.13
2022-12-20T06:08:58.903Z,3.28
2022-12-20T06:14:00.371Z,3.47
2022-12-20T06:19:02.682Z,3.22
2022-12-20T06:24:04.225Z,3.15
2022-12-20T06:29:10.411Z,3.15
2022-12-20T06:34:11.924Z,3.10
2022-12-20T06:39:13.480Z,3.20
2022-12-20T06:44:15.018Z,4.78
2022-12-20T06:49:16.651Z,3.80
2022-12-20T06:54:18.400Z,3.25
2022-12-20T06:59:19.911Z,3.65
2022-12-20T07:04:21.648Z,3.25
2022-12-20T07:09:23.416Z,3.10
2022-12-20T07:14:25.121Z,3.15
2022-12-20T07:19:27.473Z,3.42
2022-12-20T07:24:28.986Z,3.50
2022-12-20T07:29:30.474Z,3.78
2022-12-20T07:34:31.918Z,3.58
2022-12-20T07:39:34.058Z,2.58
2022-12-20T07:44:35.584Z,3.08
2022-12-20T07:49:37.325Z,2.10
2022-12-20T07:54:42.499Z,2.53
2022-12-20T07:59:47.604Z,2.30
2022-12-20T08:04:50.811Z,2.55
2022-12-20T08:09:52.487Z,2.33
2022-12-20T08:14:56.339Z,2.13
2022-12-20T08:19:58.040Z,2.33
2022-12-20T08:24:59.488Z,4.03
2022-12-20T08:30:00.954Z,2.60
2022-12-20T08:35:02.392Z,2.13
2022-12-20T08:40:04.367Z,2.35
2022-12-20T08:45:05.982Z,1.80
2022-12-20T08:50:07.946Z,1.95
2022-12-20T08:55:12.779Z,1.83
2022-12-20T09:00:15.105Z,2.40
2022-12-20T09:05:16.622Z,2.00
2022-12-20T09:10:18.148Z,1.90
2022-12-20T09:15:19.599Z,2.17
2022-12-20T09:20:21.301Z,3.72
2022-12-20T09:25:22.772Z,1.88
2022-12-20T09:30:24.586Z,2.35
2022-12-20T09:35:26.889Z,2.25
2022-12-20T09:40:32.595Z,1.83
2022-12-20T09:45:36.010Z,2.65
2022-12-20T09:50:44.764Z,1.88
2022-12-20T09:56:00.807Z,1.85
2022-12-20T10:01:15.567Z,2.08
2022-12-20T10:06:17.566Z,1.95
2022-12-20T10:11:38.661Z,2.10
2022-12-20T10:16:47.162Z,2.17
2022-12-20T10:22:09.715Z,2.13
2022-12-20T10:27:21.058Z,1.75
2022-12-20T10:32:23.545Z,2.22
2022-12-20T10:37:25.118Z,1.80
2022-12-20T10:42:30.775Z,1.45
2022-12-20T10:47:37.936Z,1.77
2022-12-20T10:52:39.658Z,3.08
2022-12-20T10:57:42.175Z,2.13
2022-12-20T11:03:01.950Z,1.65
2022-12-20T11:13:32.108Z,1.85
2022-12-20T11:18:45.794Z,2.22
2022-12-20T11:24:22.608Z,2.03
2022-12-20T11:29:33.183Z,2.00
2022-12-20T11:34:34.629Z,2.72
2022-12-20T11:39:42.184Z,2.78
2022-12-20T11:44:52.069Z,2.50
2022-12-20T11:50:25.986Z,2.58
2022-12-20T11:55:29.836Z,2.22
2022-12-20T12:00:35.365Z,2.63
2022-12-20T12:05:48.871Z,2.30
2022-12-20T12:10:59.414Z,2.38
2022-12-20T12:16:12.087Z,2.30
2022-12-20T12:21:22.552Z,1.88
2022-12-20T12:26:28.573Z,2.70
2022-12-20T12:31:35.192Z,1.92
2022-12-20T12:36:36.651Z,2.08
2022-12-20T12:41:58.401Z,1.83
2022-12-20T12:47:02.203Z,3.58
2022-12-20T12:52:05.270Z,3.38
2022-12-20T12:57:10.705Z,1.75
2022-12-20T13:02:15.839Z,2.40
2022-12-20T13:07:32.849Z,2.83
2022-12-20T13:12:40.558Z,3.05
2022-12-20T13:17:46.831Z,2.30
2022-12-20T13:23:07.517Z,2.15
2022-12-20T13:33:19.169Z,2.40
2022-12-20T13:38:29.775Z,2.20
2022-12-20T13:43:36.168Z,2.35
2022-12-20T13:48:40.395Z,2.20
2022-12-20T13:53:49.920Z,1.85
2022-12-20T13:58:51.879Z,1.73
2022-12-20T14:03:53.696Z,2.60
2022-12-20T14:08:55.297Z,2.20
2022-12-20T14:13:56.826Z,2.08
2022-12-20T14:18:58.324Z,2.42
2022-12-20T14:24:00.980Z,2.83
2022-12-20T14:29:03.922Z,2.17
2022-12-20T14:34:06.833Z,2.03
2022-12-20T14:39:26.835Z,3.13
2022-12-20T14:44:30.132Z,2.55
2022-12-20T14:49:36.119Z,2.42
2022-12-20T14:55:07.893Z,2.95
2022-12-20T15:00:23.634Z,2.58
2022-12-20T15:05:40.196Z,2.67
2022-12-20T15:11:01.599Z,2.90
2022-12-20T15:16:17.305Z,3.42
2022-12-20T15:21:24.794Z,2.88
2022-12-20T15:26:27.426Z,3.15
2022-12-20T15:31:33.796Z,2.97
2022-12-20T15:36:35.783Z,3.13
2022-12-20T15:41:37.630Z,4.03
2022-12-20T15:46:39.200Z,3.28
2022-12-20T15:51:43.225Z,2.88
2022-12-20T15:56:46.056Z,3.90
2022-12-20T16:01:48.029Z,3.28
2022-12-20T16:06:50.603Z,3.10
2022-12-20T16:11:52.512Z,4.00
2022-12-20T16:16:53.983Z,3.55
2022-12-20T16:21:55.799Z,3.95
2022-12-20T16:26:57.311Z,3.53
2022-12-20T16:31:58.852Z,2.40
2022-12-20T16:37:01.003Z,3.10
2022-12-20T16:42:02.578Z,3.22
2022-12-20T16:47:04.178Z,2.92
2022-12-20T16:52:06.773Z,3.25
2022-12-20T16:57:08.644Z,4.47
2022-12-20T17:02:29.560Z,3.53
2022-12-20T17:07:34.089Z,4.07
2022-12-20T17:12:38.091Z,3.00
2022-12-20T17:17:39.571Z,2.88
2022-12-20T17:22:41.438Z,2.70
2022-12-20T17:27:43.013Z,2.75
2022-12-20T17:32:44.599Z,3.03
2022-12-20T17:37:46.687Z,2.38
2022-12-20T17:42:49.183Z,2.42
2022-12-20T17:47:50.818Z,2.72
2022-12-20T17:52:53.134Z,3.13
2022-12-20T17:57:55.512Z,3.15
2022-12-20T18:02:57.251Z,2.40
2022-12-20T18:07:59.002Z,2.72
2022-12-20T18:13:00.522Z,3.80
2022-12-20T18:18:02.454Z,3.47
2022-12-20T18:23:03.968Z,2.88
2022-12-20T18:28:05.493Z,2.78
2022-12-20T18:33:06.979Z,2.92
2022-12-20T18:38:08.835Z,2.70
2022-12-20T18:43:10.348Z,3.95
2022-12-20T18:48:11.936Z,2.78
2022-12-20T18:53:13.531Z,2.67
2022-12-20T18:58:15.044Z,2.72
2022-12-20T19:03:17.061Z,2.22
2022-12-20T19:08:19.235Z,2.08
2022-12-20T19:13:21.263Z,1.52
2022-12-20T19:18:22.955Z,1.23
2022-12-20T19:23:24.606Z,1.10
2022-12-20T19:28:26.079Z,0.80
2022-12-20T19:33:27.550Z,1.15
2022-12-20T19:38:29.066Z,2.75
2022-12-20T19:43:30.521Z,1.92
2022-12-20T19:48:33.186Z,1.27
2022-12-20T19:53:35.579Z,1.27
2022-12-20T19:58:38.158Z,1.75
2022-12-20T20:03:39.860Z,1.85
2022-12-20T20:08:41.653Z,1.77
2022-12-20T20:13:43.209Z,1.88
2022-12-20T20:18:46.031Z,2.17
2022-12-20T20:23:47.923Z,2.92
2022-12-20T20:28:49.468Z,5.13
2022-12-20T20:33:51.052Z,2.75
2022-12-20T20:38:52.579Z,1.35
2022-12-20T20:43:54.165Z,1.63
2022-12-20T20:48:55.739Z,1.33
2022-12-20T20:53:57.523Z,1.55
2022-12-20T20:59:04.961Z,1.00
2022-12-20T21:04:08.610Z,0.83
2022-12-20T21:09:10.136Z,1.10
2022-12-20T21:14:11.903Z,0.77
2022-12-20T21:19:13.425Z,0.47
2022-12-20T21:24:14.949Z,0.88
2022-12-20T21:29:17.348Z,0.60
2022-12-20T21:34:19.006Z,0.90
2022-12-20T21:39:20.617Z,0.73
2022-12-20T21:44:22.230Z,0.75
2022-12-20T21:49:23.799Z,0.60
2022-12-20T21:54:25.788Z,0.50
2022-12-20T21:59:28.173Z,0.57
2022-12-20T22:04:29.791Z,0.47
2022-12-20T22:09:31.300Z,0.50
2022-12-20T22:14:32.787Z,0.52
2022-12-20T22:19:34.310Z,0.40
2022-12-20T22:24:37.319Z,0.60
2022-12-20T22:29:38.789Z,0.45
2022-12-20T22:34:40.258Z,0.50
2022-12-20T22:39:41.766Z,0.50
2022-12-20T22:44:43.259Z,0.38
2022-12-20T22:49:44.862Z,0.40
2022-12-20T22:54:46.521Z,0.73
2022-12-20T22:59:48.035Z,0.73
2022-12-20T23:04:49.494Z,0.50
2022-12-20T23:09:50.968Z,0.77
2022-12-20T23:15:11.130Z,0.80
2022-12-20T23:20:31.290Z,0.85
2022-12-20T23:25:32.823Z,1.00
2022-12-20T23:30:34.376Z,1.38
2022-12-20T23:35:35.933Z,1.33
2022-12-20T23:40:40.114Z,1.25
2022-12-20T23:45:41.660Z,1.60
2022-12-20T23:50:43.462Z,1.35
2022-12-20T23:55:45.806Z,0.98
